Brewster, New York
Current Conditions -  °F | °C
As of 11:53 AM on Thursday 30 Oct 2014 (Local Time) from KDXR Reporting Station
Clear Clear  
Wind Chill: 55°   Ceiling: Unl
Heat Index: 55°   Visibility: 10mi
Dew Point: 38°   Wind: 10mph
Humidity: 53%   Direction: 310°NW
Pressure: 29.99"   Gusts: NA
Location:  41.4°N, 73.62°W
Report Text: KDXR 301553Z 31009KT 10SM CLR 13/03 A2999 RMK AO2 SLP155 T01280033
Loading
Personal Weather Stations






























Interactive Weather Map
Tropical Storm Tracking
New forecast layout! Learn more

10-Day Weather Forecast

Advertisements
Track Severe Weather on mobile